Time;durP1;ratioP1;P1;durP2;ratioP2;P2;SDS_P1;SDS_P2;PMS_P1;PMS_P2;Temp;Humidity;BMP_temperature;BMP_pressure;BME280_temperature;BME280_humidity;BME280_pressure;Samples;Min_cycle;Max_cycle;Signal;HPM_P1;HPM_P2
2022/12/04 00:01:10;;;;;;;;;17.00;15.67;;;;;0.84;92.94;99045.28;4899096;28;102387;-71
2022/12/04 00:03:37;;;;;;;;;18.33;16.33;;;;;0.84;93.15;99047.94;4904283;28;102589;-72
2022/12/04 00:06:11;;;;;;;;;20.33;19.33;;;;;0.87;93.12;99055.66;4908178;28;103225;-72
2022/12/04 00:08:38;;;;;;;;;32.67;21.00;;;;;0.81;93.21;99050.00;4907603;28;102944;-71
2022/12/04 00:11:07;;;;;;;;;26.67;21.00;;;;;0.85;93.67;99056.75;4907811;28;103967;-72
2022/12/04 00:13:35;;;;;;;;;30.67;23.00;;;;;0.80;93.23;99043.84;4908758;28;102239;-71
2022/12/04 00:16:10;;;;;;;;;28.67;24.33;;;;;0.79;93.14;99052.78;4905317;28;104030;-71
2022/12/04 00:18:38;;;;;;;;;21.00;19.67;;;;;0.79;94.23;99046.63;4907909;28;102057;-71
2022/12/04 00:21:08;;;;;;;;;26.33;23.33;;;;;0.80;93.06;99051.84;4907624;28;104152;-72
2022/12/04 00:23:36;;;;;;;;;24.33;13.33;;;;;0.75;93.52;99046.03;4907838;28;102388;-72
2022/12/04 00:26:06;;;;;;;;;20.00;16.33;;;;;0.76;93.28;99055.72;4902525;28;103987;-72
2022/12/04 00:28:34;;;;;;;;;18.33;17.33;;;;;0.78;93.76;99044.94;4907337;28;102324;-72
2022/12/04 00:31:05;;;;;;;;;17.00;13.00;;;;;0.81;93.71;99052.69;4890420;28;102244;-71
2022/12/04 00:33:33;;;;;;;;;16.67;13.33;;;;;0.81;93.82;99053.50;4885268;28;110491;-72
2022/12/04 00:36:02;;;;;;;;;17.67;16.67;;;;;0.77;93.03;99041.41;4898601;28;108529;-71
2022/12/04 00:38:29;;;;;;;;;24.67;20.00;;;;;0.69;93.86;99048.34;4910406;28;102253;-72
2022/12/04 00:40:56;;;;;;;;;31.00;24.67;;;;;0.51;93.48;99025.94;4904656;28;102368;-72
2022/12/04 00:43:23;;;;;;;;;22.67;20.00;;;;;0.66;93.94;99049.47;4908858;28;102422;-71
2022/12/04 00:45:50;;;;;;;;;20.67;17.00;;;;;0.66;94.24;99043.31;4908778;28;103999;-71
2022/12/04 00:48:17;;;;;;;;;16.33;12.33;;;;;0.68;94.01;99052.84;4907767;28;102649;-71
2022/12/04 00:50:44;;;;;;;;;17.00;14.67;;;;;0.68;93.40;99044.84;4908079;28;102257;-71
2022/12/04 00:53:12;;;;;;;;;12.67;9.67;;;;;0.67;93.43;99050.31;4909009;28;102226;-71
2022/12/04 00:55:40;;;;;;;;;9.00;8.00;;;;;0.68;93.13;99050.16;4906748;28;103948;-72
2022/12/04 00:58:09;;;;;;;;;19.67;12.33;;;;;0.65;93.64;99054.91;4908260;28;102491;-71
2022/12/04 01:00:38;;;;;;;;;13.33;12.00;;;;;0.62;93.47;99058.69;4907407;28;102611;-72
2022/12/04 01:03:06;;;;;;;;;11.67;8.33;;;;;0.60;93.85;99049.13;4909648;28;102469;-72
2022/12/04 01:05:44;;;;;;;;;13.75;9.75;;;;;0.58;93.22;99043.94;4905366;28;104092;-71
2022/12/04 01:08:11;;;;;;;;;9.33;8.33;;;;;0.58;93.89;99045.75;4909194;28;102735;-70
2022/12/04 01:10:40;;;;;;;;;17.33;12.33;;;;;0.52;93.57;99041.78;4908066;28;102249;-71
2022/12/04 01:13:07;;;;;;;;;9.75;8.25;;;;;0.55;93.85;99043.34;4911002;28;102387;-71
2022/12/04 01:15:42;;;;;;;;;9.50;7.25;;;;;0.58;93.28;99046.63;4907083;28;104015;-71
2022/12/04 01:18:11;;;;;;;;;7.00;4.00;;;;;0.55;93.01;99044.19;4907729;28;102271;-71
2022/12/04 01:20:38;;;;;;;;;5.75;5.75;;;;;0.47;92.86;99040.47;4904253;28;104356;-71
2022/12/04 01:23:05;;;;;;;;;5.75;5.75;;;;;0.41;93.09;99039.16;4908169;28;102340;-71
2022/12/04 01:25:32;;;;;;;;;5.25;5.00;;;;;0.38;92.92;99042.09;4909057;28;105362;-71
2022/12/04 01:27:59;;;;;;;;;6.50;5.00;;;;;0.33;93.37;99039.81;4905607;28;102443;-71
2022/12/04 01:30:26;;;;;;;;;4.00;4.00;;;;;0.31;93.26;99031.13;4905461;28;102221;-70
2022/12/04 01:32:52;;;;;;;;;1.25;1.00;;;;;0.29;93.38;99033.03;4908797;28;104077;-71
2022/12/04 01:35:19;;;;;;;;;3.50;3.50;;;;;0.28;93.35;99035.81;4908806;28;103998;-71
2022/12/04 01:37:46;;;;;;;;;6.50;5.00;;;;;0.25;93.62;99028.09;4906922;28;102660;-71
2022/12/04 01:40:15;;;;;;;;;5.25;2.50;;;;;0.18;93.77;99021.63;4906578;28;102162;-71
2022/12/04 01:42:42;;;;;;;;;5.00;4.00;;;;;0.15;93.56;99032.47;4910077;28;102881;-71
2022/12/04 01:45:36;;;;;;;;;4.00;2.00;;;;;0.14;93.89;99034.28;4885692;28;103994;-71
2022/12/04 01:48:29;;;;;;;;;4.00;2.00;;;;;0.05;93.14;99026.22;4904968;28;102476;-72
2022/12/04 01:51:13;;;;;;;;;8.00;6.50;;;;;-0.06;93.48;99027.94;4906540;28;102133;-72
2022/12/04 01:53:45;;;;;;;;;8.00;4.50;;;;;-0.14;94.06;99019.75;4907733;28;102016;-71
2022/12/04 01:56:13;;;;;;;;;6.50;5.00;;;;;-0.13;93.84;99016.09;4901806;28;103991;-71
2022/12/04 01:58:46;;;;;;;;;5.00;4.25;;;;;-0.12;94.24;99007.19;4903937;28;102354;-71
2022/12/04 02:01:13;;;;;;;;;4.00;2.00;;;;;-0.10;94.17;99017.69;4900362;28;102130;-72
2022/12/04 02:03:40;;;;;;;;;5.00;4.50;;;;;-0.13;93.88;99024.09;4905362;28;102442;-70
2022/12/04 02:06:07;;;;;;;;;1.75;1.00;;;;;-0.14;93.35;99022.41;4902562;28;104026;-71
2022/12/04 02:08:43;;;;;;;;;1.00;1.00;;;;;-0.15;92.95;99028.69;4908096;28;102109;-70
2022/12/04 02:11:56;;;;;;;;;1.00;0.00;;;;;-0.15;92.37;99027.84;4906937;28;104687;-71
2022/12/04 02:14:53;;;;;;;;;1.50;0.00;;;;;-0.16;92.79;99023.50;4904474;28;103838;-71
2022/12/04 02:17:45;;;;;;;;;4.67;4.67;;;;;-0.22;93.86;99014.19;4903711;28;107493;-71
2022/12/04 02:20:53;;;;;;;;;6.00;5.00;;;;;-0.21;94.73;99013.22;4905006;28;104283;-71
2022/12/04 02:24:12;;;;;;;;;5.00;4.00;;;;;-0.21;94.06;99021.19;4560871;28;9947694;-71
2022/12/04 02:27:20;;;;;;;;;4.33;2.00;;;;;-0.16;94.23;99034.97;4899694;28;104063;-71
2022/12/04 02:30:04;;;;;;;;;1.00;1.00;;;;;-0.14;93.99;99032.19;4907694;28;102323;-71
2022/12/04 02:32:57;;;;;;;;;2.00;1.00;;;;;-0.09;94.22;99032.69;4911473;28;108856;-72
2022/12/04 02:35:29;;;;;;;;;4.75;4.00;;;;;-0.13;94.16;99024.09;4908083;28;104651;-70
2022/12/04 02:38:05;;;;;;;;;6.50;2.50;;;;;-0.09;94.82;99025.53;4911967;28;102166;-71
2022/12/04 02:40:58;;;;;;;;;1.75;1.75;;;;;-0.11;95.00;99006.22;4909499;28;102426;-71
2022/12/04 02:44:03;;;;;;;;;1.00;1.00;;;;;0.08;94.96;99026.84;4907815;28;108381;-71
2022/12/04 02:46:38;;;;;;;;;5.75;4.50;;;;;0.09;94.79;99028.50;4906329;28;101901;-71
2022/12/04 02:49:14;;;;;;;;;15.67;15.00;;;;;-0.04;95.59;99018.03;4904245;28;102077;-71
2022/12/04 02:51:44;;;;;;;;;24.67;20.00;;;;;-0.11;95.90;99019.50;4912296;28;102125;-71
2022/12/04 02:54:33;;;;;;;;;18.00;15.00;;;;;-0.06;95.77;99022.63;4910614;28;103966;-71
2022/12/04 02:57:03;;;;;;;;;11.00;10.67;;;;;-0.02;95.91;99032.03;4910834;28;102371;-71
2022/12/04 02:59:43;;;;;;;;;9.67;8.33;;;;;0.05;95.62;99036.84;4910355;28;101968;-71
2022/12/04 03:02:24;;;;;;;;;13.00;10.67;;;;;-0.12;95.17;99001.88;4912477;28;101929;-71
2022/12/04 03:04:54;;;;;;;;;0.00;0.00;;;;;0.02;95.77;99034.44;4908067;28;104137;-71
2022/12/04 03:07:30;;;;;;;;;11.00;11.00;;;;;0.01;95.52;99030.94;4910842;28;102334;-71
2022/12/04 03:10:02;;;;;;;;;17.00;15.33;;;;;-0.11;95.95;99023.97;4910468;28;101856;-71
2022/12/04 03:12:41;;;;;;;;;13.67;8.00;;;;;-0.32;95.53;98997.31;4888234;28;102551;-72
2022/12/04 03:15:19;;;;;;;;;16.67;16.00;;;;;-0.16;96.03;99032.31;4899604;28;108260;-72
2022/12/04 03:18:14;;;;;;;;;17.67;15.00;;;;;-0.21;96.33;99015.88;4909642;28;102300;-71
2022/12/04 03:20:44;;;;;;;;;24.00;19.00;;;;;-0.26;96.65;99012.75;4909541;28;102440;-71
2022/12/04 03:23:21;;;;;;;;;24.00;20.67;;;;;-0.28;97.32;99004.09;4912562;28;102870;-71
2022/12/04 03:26:09;;;;;;;;;29.67;24.00;;;;;-0.32;96.92;98991.16;4903881;28;104005;-70
2022/12/04 03:28:55;;;;;;;;;26.00;22.33;;;;;-0.29;97.34;98996.22;4909108;28;102614;-71
2022/12/04 03:31:33;;;;;;;;;16.67;14.33;;;;;-0.23;97.39;99001.91;4913144;28;102380;-72
2022/12/04 03:34:03;;;;;;;;;12.67;8.67;;;;;-0.18;96.83;99007.66;4910934;28;102475;-71
2022/12/04 03:36:36;;;;;;;;;17.33;10.00;;;;;-0.25;96.11;98998.50;4910252;28;104008;-71
2022/12/04 03:39:25;;;;;;;;;6.00;6.00;;;;;-0.17;96.09;99006.69;4911462;28;102196;-71
2022/12/04 03:42:09;;;;;;;;;8.00;6.00;;;;;-0.24;95.13;99000.22;4906662;28;102707;-71
2022/12/04 03:44:42;;;;;;;;;4.00;3.00;;;;;-0.19;96.08;98995.38;4900060;28;102075;-72
2022/12/04 03:47:18;;;;;;;;;10.33;8.00;;;;;-0.24;95.91;98991.38;4902374;28;110165;-71
2022/12/04 03:49:54;;;;;;;;;13.00;11.00;;;;;-0.22;96.35;98981.47;4910656;28;104449;-71
2022/12/04 03:52:35;;;;;;;;;18.00;15.00;;;;;-0.31;96.82;98967.13;4908177;28;102563;-71
2022/12/04 03:55:24;;;;;;;;;14.33;11.00;;;;;-0.18;97.13;98986.41;4911308;28;102183;-70
2022/12/04 03:57:57;;;;;;;;;17.33;14.67;;;;;-0.20;97.03;98988.34;4907958;28;108668;-71
2022/12/04 04:00:24;;;;;;;;;12.00;10.33;;;;;-0.11;97.82;98994.72;4908969;28;104270;-70
2022/12/04 04:03:16;;;;;;;;;9.00;8.00;;;;;-0.04;97.41;98996.75;4907379;28;102080;-71
2022/12/04 04:05:49;;;;;;;;;17.67;12.67;;;;;-0.06;96.83;98996.06;4908509;28;103770;-71
2022/12/04 04:08:25;;;;;;;;;19.00;16.00;;;;;-0.10;97.48;98985.81;4905380;28;102708;-71
2022/12/04 04:10:58;;;;;;;;;9.67;6.67;;;;;0.04;97.26;98998.81;4905957;28;102351;-72
2022/12/04 04:24:46;;;;;;;;;17.33;13.00;;;;;0.09;96.41;98996.59;4908551;28;102301;-71
2022/12/04 04:27:13;;;;;;;;;17.67;15.67;;;;;0.00;96.72;98986.75;4906158;28;102261;-72
2022/12/04 04:29:43;;;;;;;;;0.00;0.00;;;;;0.07;96.50;98989.72;4908498;28;103850;-72
2022/12/04 04:32:36;;;;;;;;;20.33;16.00;;;;;-0.01;96.85;98990.38;4907226;28;102453;-72
2022/12/04 04:35:05;;;;;;;;;20.00;15.00;;;;;0.04;96.86;98993.50;4910701;28;103171;-72
2022/12/04 04:37:56;;;;;;;;;16.33;13.67;;;;;0.02;96.24;98990.09;4907237;28;102476;-71
2022/12/04 04:40:33;;;;;;;;;15.33;11.33;;;;;0.04;96.44;98992.66;4907732;28;108047;-73
2022/12/04 04:43:14;;;;;;;;;8.75;8.25;;;;;0.10;96.97;98992.97;4905615;28;102564;-72
2022/12/04 04:45:47;;;;;;;;;5.75;4.50;;;;;0.13;96.12;99005.19;4908384;28;102339;-72
2022/12/04 04:48:29;;;;;;;;;9.33;6.00;;;;;0.06;96.10;99004.84;4905202;28;103638;-70
2022/12/04 04:50:58;;;;;;;;;10.33;6.00;;;;;0.12;96.09;98998.19;4905422;28;103972;-70
2022/12/04 04:53:32;;;;;;;;;1.00;1.00;;;;;0.19;96.13;99007.31;4907752;28;107692;-71
2022/12/04 04:55:59;;;;;;;;;11.00;11.00;;;;;0.10;95.30;98992.13;4904251;28;102563;-71
2022/12/04 04:58:26;;;;;;;;;9.67;8.33;;;;;0.07;96.15;99005.69;4894501;28;102235;-72
2022/12/04 05:00:58;;;;;;;;;17.00;13.00;;;;;-0.01;96.51;99007.16;4906810;28;104045;-72
2022/12/04 05:03:26;;;;;;;;;19.67;16.33;;;;;-0.07;96.36;99002.34;4902535;28;104171;-72
2022/12/04 05:05:53;;;;;;;;;18.67;13.67;;;;;-0.09;96.48;98990.97;4907330;28;102043;-71
2022/12/04 05:08:21;;;;;;;;;20.33;15.67;;;;;-0.13;96.38;98989.53;4904727;28;102032;-70
2022/12/04 05:10:48;;;;;;;;;12.00;9.33;;;;;-0.11;96.35;98992.94;4909202;28;104028;-71
2022/12/04 05:13:16;;;;;;;;;10.67;9.33;;;;;-0.12;96.59;99001.88;4908586;28;104852;-71
2022/12/04 05:15:43;;;;;;;;;20.00;12.00;;;;;-0.14;96.80;99006.47;4908510;28;102240;-71
2022/12/04 05:18:10;;;;;;;;;15.00;11.67;;;;;-0.16;96.94;99007.53;4908223;28;102437;-71
2022/12/04 05:20:38;;;;;;;;;13.67;12.33;;;;;-0.19;97.08;99002.50;4910112;28;104222;-72
2022/12/04 05:23:06;;;;;;;;;11.33;8.33;;;;;-0.19;97.18;98998.03;4909062;28;102380;-72
2022/12/04 05:25:33;;;;;;;;;4.00;4.00;;;;;-0.10;96.65;99005.25;4910770;28;102212;-71
2022/12/04 05:28:00;;;;;;;;;9.00;6.00;;;;;-0.11;96.41;99000.06;4910300;28;102380;-72
2022/12/04 05:30:27;;;;;;;;;9.00;8.00;;;;;-0.13;96.40;99007.28;4908525;28;104277;-71
2022/12/04 05:32:54;;;;;;;;;9.33;6.00;;;;;-0.11;96.64;99008.03;4907988;28;102126;-71
2022/12/04 05:35:21;;;;;;;;;16.00;12.67;;;;;-0.19;96.34;99002.50;4908294;28;102434;-72
2022/12/04 05:37:48;;;;;;;;;17.00;13.67;;;;;-0.20;96.68;98998.97;4908856;28;102245;-71
2022/12/04 05:40:15;;;;;;;;;15.33;12.33;;;;;-0.15;96.80;99007.44;4910905;28;104011;-71
2022/12/04 05:42:42;;;;;;;;;15.00;12.33;;;;;-0.31;97.10;98988.38;4908914;28;103711;-70
2022/12/04 05:45:09;;;;;;;;;14.33;12.00;;;;;-0.22;97.17;98998.25;4907580;28;102162;-70
2022/12/04 05:47:43;;;;;;;;;17.33;11.67;;;;;-0.16;96.91;99005.75;4908802;28;102117;-71
2022/12/04 05:50:11;;;;;;;;;8.33;7.33;;;;;-0.11;96.89;99010.69;4906293;28;104007;-71
2022/12/04 05:52:38;;;;;;;;;11.33;10.67;;;;;-0.16;96.80;99008.41;4906756;28;103748;-71
2022/12/04 05:55:06;;;;;;;;;11.00;8.00;;;;;-0.12;96.77;99009.00;4908049;28;102290;-72
2022/12/04 05:57:33;;;;;;;;;5.00;4.00;;;;;-0.05;96.49;99010.19;4912367;28;102432;-70
2022/12/04 06:00:00;;;;;;;;;8.00;6.50;;;;;-0.08;96.69;99005.97;4908918;28;104279;-71
2022/12/04 06:02:27;;;;;;;;;8.00;5.67;;;;;-0.06;96.22;99017.31;4912043;28;102500;-71
2022/12/04 06:04:54;;;;;;;;;4.33;4.33;;;;;-0.02;96.91;99021.41;4905089;28;102543;-71
2022/12/04 06:07:21;;;;;;;;;4.00;2.00;;;;;0.05;96.49;99019.09;4909055;28;104134;-71
2022/12/04 06:09:48;;;;;;;;;5.75;4.75;;;;;0.01;96.17;99015.00;4911142;28;103039;-72
2022/12/04 06:12:15;;;;;;;;;3.50;1.75;;;;;0.11;96.22;99007.13;4908762;28;105769;-72
2022/12/04 06:14:42;;;;;;;;;1.50;1.00;;;;;0.12;96.20;99016.78;4909276;28;104067;-72
2022/12/04 06:17:09;;;;;;;;;1.00;1.00;;;;;0.14;95.54;99009.50;4912608;28;104373;-72
2022/12/04 06:19:36;;;;;;;;;11.50;7.00;;;;;-0.07;95.67;99007.66;4907742;28;103945;-71
2022/12/04 06:22:03;;;;;;;;;12.67;10.33;;;;;-0.12;96.97;99007.19;4912660;28;102289;-72
2022/12/04 06:24:30;;;;;;;;;13.00;9.67;;;;;-0.11;96.79;99011.53;4909621;28;101935;-71
2022/12/04 06:26:58;;;;;;;;;11.00;9.00;;;;;-0.11;97.03;99011.53;4909239;28;102222;-74
2022/12/04 06:29:45;;;;;;;;;12.00;8.25;;;;;-0.05;97.14;99021.69;4910506;28;107438;-71
2022/12/04 06:32:12;;;;;;;;;9.00;6.00;;;;;-0.10;96.96;99012.38;4908269;28;103892;-72
2022/12/04 06:34:50;;;;;;;;;15.67;11.00;;;;;-0.07;97.08;99007.66;4908042;28;101933;-71
2022/12/04 06:37:18;;;;;;;;;8.67;8.00;;;;;-0.02;96.74;99024.06;4911947;28;102845;-71
2022/12/04 06:39:45;;;;;;;;;13.00;12.67;;;;;-0.07;96.70;99012.13;4911166;28;104165;-71
2022/12/04 06:42:12;;;;;;;;;10.33;7.33;;;;;-0.02;97.05;99026.72;4907437;28;103696;-71
2022/12/04 06:44:39;;;;;;;;;13.00;10.00;;;;;-0.07;96.76;99026.25;4909312;28;104508;-72
2022/12/04 06:47:07;;;;;;;;;6.00;5.00;;;;;0.06;96.90;99017.28;4909862;28;102037;-71
2022/12/04 06:49:35;;;;;;;;;7.25;7.00;;;;;0.05;96.57;99023.56;4909804;28;104298;-71
2022/12/04 06:52:02;;;;;;;;;8.25;5.00;;;;;0.10;96.43;99022.22;4907846;28;102405;-73
2022/12/04 06:54:29;;;;;;;;;1.75;1.00;;;;;0.23;96.49;99033.53;4907737;28;102373;-71
2022/12/04 06:56:56;;;;;;;;;10.00;9.00;;;;;0.13;95.65;99019.34;4910352;28;102097;-71
2022/12/04 06:59:24;;;;;;;;;12.00;12.00;;;;;0.08;96.31;99016.19;4904959;28;104329;-72
2022/12/04 07:01:51;;;;;;;;;25.33;21.00;;;;;-0.03;96.84;99014.41;4904244;28;102454;-70
2022/12/04 07:04:19;;;;;;;;;28.33;21.00;;;;;-0.01;96.75;99004.50;4907050;28;102128;-70
2022/12/04 07:06:46;;;;;;;;;17.67;16.00;;;;;0.10;96.60;99000.09;4909561;28;102103;-72
2022/12/04 07:09:15;;;;;;;;;16.00;13.00;;;;;0.13;96.28;99023.81;4907264;28;104031;-71
2022/12/04 07:11:43;;;;;;;;;17.67;13.67;;;;;0.09;95.83;99009.88;4891712;28;102769;-72
2022/12/04 07:14:11;;;;;;;;;10.50;9.50;;;;;0.17;95.68;99009.28;4902524;28;102496;-71
2022/12/04 07:16:39;;;;;;;;;11.00;10.00;;;;;0.16;95.44;99004.94;4911535;28;102215;-73
2022/12/04 07:19:12;;;;;;;;;10.50;6.50;;;;;0.05;95.33;98979.22;4909114;28;104102;-71
2022/12/04 07:21:41;;;;;;;;;5.25;4.00;;;;;0.32;95.59;99013.31;4909054;28;102431;-72
2022/12/04 07:24:15;;;;;;;;;5.00;4.00;;;;;0.34;94.67;99008.72;4906971;28;102425;-71
2022/12/04 07:26:45;;;;;;;;;11.25;7.00;;;;;0.26;94.63;99019.16;4911191;28;102435;-72
2022/12/04 07:29:14;;;;;;;;;4.50;4.00;;;;;0.36;94.79;99026.25;4907065;28;103604;-71
2022/12/04 07:31:43;;;;;;;;;2.00;2.00;;;;;0.41;93.88;99017.88;4910252;28;102597;-72
2022/12/04 07:34:13;;;;;;;;;6.25;5.50;;;;;0.36;94.62;99020.09;4908303;28;102357;-72
2022/12/04 07:36:40;;;;;;;;;7.00;5.00;;;;;0.42;94.58;99015.09;4909756;28;102190;-71
2022/12/04 07:39:07;;;;;;;;;4.50;4.25;;;;;0.40;94.82;99016.22;4907180;28;104063;-71
2022/12/04 07:41:34;;;;;;;;;10.00;9.33;;;;;0.38;94.73;99024.31;4908739;28;102357;-71
2022/12/04 07:44:01;;;;;;;;;8.25;6.50;;;;;0.44;95.65;99028.28;4905582;28;102406;-71
2022/12/04 07:46:28;;;;;;;;;6.00;6.00;;;;;0.41;95.45;99029.38;4911376;28;102376;-72
2022/12/04 07:48:57;;;;;;;;;15.00;7.00;;;;;0.47;95.01;99036.00;4890032;28;104071;-70
2022/12/04 07:51:26;;;;;;;;;9.33;9.00;;;;;0.31;95.04;99022.28;4909471;28;102647;-72
2022/12/04 07:53:56;;;;;;;;;22.33;16.00;;;;;0.30;96.08;99020.59;4911080;28;102123;-72
2022/12/04 07:56:29;;;;;;;;;16.00;10.00;;;;;0.29;96.43;99034.84;4912910;28;102650;-72
2022/12/04 07:58:58;;;;;;;;;15.25;12.75;;;;;0.26;96.47;99035.13;4906432;28;104117;-72
2022/12/04 08:01:25;;;;;;;;;21.67;17.00;;;;;0.21;96.86;99032.00;4909586;28;102464;-72
2022/12/04 08:03:55;;;;;;;;;20.00;17.00;;;;;0.23;95.93;99040.66;4906628;28;102232;-72
2022/12/04 08:06:24;;;;;;;;;22.00;20.00;;;;;0.20;97.09;99036.47;4908169;28;104009;-72
2022/12/04 08:08:51;;;;;;;;;18.33;13.67;;;;;0.10;96.94;99013.41;4905954;28;104057;-71
2022/12/04 08:11:21;;;;;;;;;19.67;14.00;;;;;0.30;97.34;99031.22;4908047;28;103716;-71
2022/12/04 08:13:57;;;;;;;;;16.67;12.00;;;;;0.39;97.21;99041.13;4901795;28;104053;-72
2022/12/04 08:16:28;;;;;;;;;12.67;10.00;;;;;0.41;96.78;99050.66;4910393;28;102355;-72
2022/12/04 08:18:59;;;;;;;;;13.00;12.67;;;;;0.40;96.27;99045.47;4906753;28;103659;-72
2022/12/04 08:21:30;;;;;;;;;20.33;14.67;;;;;0.49;97.07;99060.69;4906758;28;104149;-71
2022/12/04 08:24:00;;;;;;;;;19.33;13.33;;;;;0.53;96.37;99054.13;4889285;28;102975;-72
2022/12/04 08:26:32;;;;;;;;;6.25;6.00;;;;;0.69;96.31;99062.50;4907984;28;102128;-72
2022/12/04 08:29:02;;;;;;;;;9.00;5.75;;;;;0.77;95.73;99057.38;4906721;28;103219;-71
2022/12/04 08:31:33;;;;;;;;;5.00;3.50;;;;;0.88;95.74;99057.34;4909158;28;102297;-70
2022/12/04 08:34:03;;;;;;;;;5.25;4.75;;;;;0.94;93.97;99039.16;4905235;28;102169;-72
2022/12/04 08:36:31;;;;;;;;;8.75;5.75;;;;;0.98;93.35;99036.13;4907354;28;103597;-70
2022/12/04 08:38:58;;;;;;;;;5.00;3.50;;;;;1.08;93.97;99034.34;4909826;28;103982;-71
2022/12/04 08:41:26;;;;;;;;;6.00;6.00;;;;;1.11;93.30;99033.25;4911823;28;102320;-71
2022/12/04 08:43:55;;;;;;;;;14.50;12.50;;;;;1.05;92.69;99039.09;4912635;28;102422;-70
2022/12/04 08:46:24;;;;;;;;;12.25;10.25;;;;;1.15;92.03;99046.19;4909058;28;102461;-71
2022/12/04 08:48:54;;;;;;;;;8.00;5.50;;;;;1.31;92.31;99032.38;4911597;28;103299;-72
2022/12/04 08:51:29;;;;;;;;;12.00;9.00;;;;;1.31;92.26;99033.22;4912030;28;102195;-70
2022/12/04 08:54:03;;;;;;;;;12.75;10.00;;;;;1.30;92.43;99025.38;4910942;28;101923;-71
2022/12/04 08:56:34;;;;;;;;;17.25;13.00;;;;;1.35;91.77;99026.63;4913523;28;102182;-72
2022/12/04 08:59:04;;;;;;;;;13.00;9.00;;;;;1.49;91.94;99033.44;4905902;28;107703;-71
2022/12/04 09:01:33;;;;;;;;;13.50;9.75;;;;;1.63;91.75;99029.56;4904805;28;103587;-72
2022/12/04 09:04:03;;;;;;;;;9.00;7.75;;;;;1.70;90.84;99030.75;4907475;28;102224;-70
2022/12/04 09:06:33;;;;;;;;;9.50;8.00;;;;;1.69;91.08;99029.88;4911012;28;102438;-71
2022/12/04 09:09:03;;;;;;;;;13.25;11.00;;;;;1.66;89.73;99026.66;4890363;28;107759;-72
2022/12/04 09:11:32;;;;;;;;;8.50;7.50;;;;;1.81;90.14;99033.28;4909282;28;102485;-71
2022/12/04 09:14:02;;;;;;;;;9.00;9.00;;;;;1.89;89.70;99030.78;4902895;28;102225;-71
2022/12/04 09:16:31;;;;;;;;;14.00;10.00;;;;;2.00;90.38;99027.16;4906827;28;102497;-70
2022/12/04 09:19:01;;;;;;;;;13.25;11.00;;;;;2.09;89.44;99031.69;4905550;28;103482;-70
2022/12/04 09:21:30;;;;;;;;;9.00;8.50;;;;;2.30;89.58;99029.75;4900363;28;102414;-71
2022/12/04 09:24:00;;;;;;;;;13.25;10.00;;;;;2.29;88.96;98988.06;4905120;28;102157;-72
2022/12/04 09:26:31;;;;;;;;;9.25;8.00;;;;;2.63;88.64;99018.69;4916721;28;102087;-71
2022/12/04 09:29:03;;;;;;;;;13.00;10.00;;;;;2.59;87.53;99011.09;4913906;28;103576;-71
2022/12/04 09:31:32;;;;;;;;;21.00;15.75;;;;;2.47;88.69;99005.06;4915370;28;102272;-70
2022/12/04 09:34:02;;;;;;;;;20.75;18.50;;;;;2.42;89.28;99007.31;4914676;28;102215;-71
2022/12/04 09:36:31;;;;;;;;;22.50;15.50;;;;;2.51;88.97;98993.13;4910943;28;102202;-72
2022/12/04 09:39:00;;;;;;;;;17.00;17.00;;;;;2.59;88.87;99003.94;4910128;28;103706;-70
2022/12/04 09:41:35;;;;;;;;;13.25;10.00;;;;;2.66;88.31;98999.69;4909782;28;102339;-71
2022/12/04 09:44:22;;;;;;;;;16.25;13.50;;;;;2.59;88.56;98989.75;4914241;28;102110;-70
2022/12/04 09:46:58;;;;;;;;;20.75;18.75;;;;;2.63;89.51;98978.63;4907896;28;102413;-71
2022/12/04 09:49:30;;;;;;;;;15.75;14.00;;;;;2.78;88.67;98968.38;4909924;28;103958;-70
2022/12/04 09:52:01;;;;;;;;;19.75;16.50;;;;;2.73;88.31;98975.97;4911205;28;102186;-71
2022/12/04 09:54:39;;;;;;;;;20.75;17.75;;;;;2.86;88.01;98965.81;4910657;28;102357;-71
2022/12/04 09:57:24;;;;;;;;;18.75;16.00;;;;;2.94;87.77;98976.63;4901740;28;102993;-73
2022/12/04 09:59:52;;;;;;;;;15.75;13.75;;;;;3.11;86.85;98970.53;4904275;28;104000;-71
2022/12/04 10:02:40;;;;;;;;;19.00;11.50;;;;;3.33;86.35;98965.84;4908310;28;102494;-71
2022/12/04 10:05:29;;;;;;;;;18.50;16.50;;;;;3.38;85.64;98948.34;4899309;28;102443;-71
2022/12/04 10:08:18;;;;;;;;;19.25;16.00;;;;;3.56;86.13;98961.78;4906733;28;102303;-70
2022/12/04 10:11:10;;;;;;;;;17.00;13.25;;;;;3.74;85.04;98969.88;4906428;28;108514;-70
2022/12/04 10:13:43;;;;;;;;;11.50;10.75;;;;;4.03;84.33;98962.50;4910956;28;102131;-70
2022/12/04 10:16:27;;;;;;;;;8.25;6.50;;;;;4.26;83.91;98955.72;4902729;28;102104;-69
2022/12/04 10:19:23;;;;;;;;;16.50;10.50;;;;;4.33;81.34;98962.13;4917382;28;102247;-70
2022/12/04 10:22:27;;;;;;;;;7.25;7.00;;;;;4.55;82.01;98960.81;4912834;28;108647;-70
2022/12/04 10:25:00;;;;;;;;;7.25;5.75;;;;;4.77;80.68;98951.47;4896616;28;102263;-69
2022/12/04 10:27:31;;;;;;;;;11.50;7.50;;;;;4.50;80.93;98947.91;4916131;28;102181;-71
2022/12/04 10:30:03;;;;;;;;;16.25;14.00;;;;;4.46;80.08;98949.19;4916936;28;102083;-70
2022/12/04 10:32:34;;;;;;;;;10.50;8.50;;;;;4.52;79.50;98952.25;4909683;28;104007;-69
2022/12/04 10:35:23;;;;;;;;;10.50;8.75;;;;;4.64;80.67;98956.41;4913856;28;102020;-70
2022/12/04 10:37:58;;;;;;;;;5.00;5.00;;;;;4.78;80.04;98955.81;4914178;28;102358;-70
2022/12/04 10:40:36;;;;;;;;;7.25;5.50;;;;;4.87;79.02;98944.16;4912623;28;102239;-70
2022/12/04 10:43:14;;;;;;;;;5.00;3.00;;;;;4.96;78.83;98943.22;4907953;28;108768;-70
2022/12/04 10:45:41;;;;;;;;;1.25;1.00;;;;;5.03;78.23;98933.59;4907938;28;102474;-70
2022/12/04 10:48:34;;;;;;;;;3.00;2.00;;;;;5.03;78.53;98938.94;4914715;28;102207;-70
2022/12/04 10:51:01;;;;;;;;;1.00;1.00;;;;;5.10;78.53;98929.25;4915393;28;102243;-70
2022/12/04 10:53:34;;;;;;;;;1.00;0.75;;;;;5.11;77.53;98914.88;4916879;28;103964;-70
2022/12/04 10:56:31;;;;;;;;;2.75;1.00;;;;;5.15;76.98;98932.31;4915498;28;102368;-70
2022/12/04 10:59:03;;;;;;;;;0.00;0.00;;;;;5.16;76.90;98943.88;4883678;28;102060;-70
2022/12/04 11:01:33;;;;;;;;;0.25;0.25;;;;;5.11;77.00;98944.34;4910137;28;102004;-70
2022/12/04 11:04:07;;;;;;;;;1.00;1.00;;;;;5.17;77.30;98945.56;4914428;28;104046;-70
2022/12/04 11:06:35;;;;;;;;;1.00;0.00;;;;;5.21;77.28;98944.25;4912690;28;102181;-70
2022/12/04 11:09:03;;;;;;;;;0.00;0.00;;;;;5.24;77.29;98936.72;4914520;28;101985;-70
2022/12/04 11:11:32;;;;;;;;;0.50;0.00;;;;;5.29;77.28;98936.25;4915146;28;102075;-70
2022/12/04 11:14:21;;;;;;;;;0.00;0.00;;;;;5.32;77.86;98939.44;4913296;28;104003;-70
2022/12/04 11:16:58;;;;;;;;;0.00;0.00;;;;;5.38;76.78;98932.59;4913545;28;102285;-70
2022/12/04 11:19:31;;;;;;;;;0.50;0.00;;;;;5.38;77.08;98924.56;4913935;28;102093;-70
2022/12/04 11:22:04;;;;;;;;;1.50;0.00;;;;;5.44;76.13;98931.13;4915908;28;102452;-70
2022/12/04 11:24:35;;;;;;;;;1.50;1.50;;;;;5.31;76.38;98918.97;4908924;28;103933;-70
2022/12/04 11:27:04;;;;;;;;;1.00;0.75;;;;;5.42;76.26;98936.63;4889481;28;101968;-70
2022/12/04 11:29:37;;;;;;;;;0.00;0.00;;;;;5.42;76.35;98933.97;4904032;28;102024;-70
2022/12/04 11:32:06;;;;;;;;;0.75;0.00;;;;;5.43;76.56;98935.66;4914496;28;102435;-70
2022/12/04 11:34:37;;;;;;;;;1.25;1.00;;;;;5.39;76.52;98937.81;4898176;28;108686;-70
2022/12/04 11:37:16;;;;;;;;;1.00;1.00;;;;;5.39;76.77;98928.94;4899780;28;102099;-70
2022/12/04 11:39:44;;;;;;;;;1.00;1.00;;;;;5.42;76.71;98920.53;4897689;28;103020;-70
2022/12/04 11:42:11;;;;;;;;;0.75;0.75;;;;;5.39;76.86;98919.03;4910673;28;102289;-70
2022/12/04 11:44:47;;;;;;;;;1.00;1.00;;;;;5.38;76.54;98917.34;4886546;28;104031;-69
2022/12/04 11:47:17;;;;;;;;;0.75;0.75;;;;;5.42;76.61;98917.03;4902570;28;102227;-70
2022/12/04 11:49:59;;;;;;;;;0.50;0.25;;;;;5.43;76.56;98916.03;4896091;28;102173;-71
2022/12/04 11:52:35;;;;;;;;;3.00;3.00;;;;;5.33;76.16;98914.31;4897093;28;101943;-71
2022/12/04 11:55:14;;;;;;;;;10.50;8.50;;;;;5.17;76.77;98919.59;4901896;28;108779;-70
2022/12/04 11:58:13;;;;;;;;;22.75;16.00;;;;;5.07;77.80;98913.50;4888044;28;102187;-72
2022/12/04 12:01:06;;;;;;;;;12.75;10.00;;;;;5.10;77.24;98923.91;4885184;28;102213;-70